createdAt,value
2018-10-18T00:00:59.001Z,16.67
2018-10-18T00:03:28.849Z,16.68
2018-10-18T00:05:59.319Z,16.89
2018-10-18T00:08:27.852Z,16.81
2018-10-18T00:10:57.315Z,16.05
2018-10-18T00:13:26.056Z,16.64
2018-10-18T00:15:55.703Z,16.52
2018-10-18T00:18:25.966Z,16.45
2018-10-18T00:20:59.015Z,16.43
2018-10-18T00:23:28.933Z,16.12
2018-10-18T00:25:59.865Z,16.56
2018-10-18T00:28:29.774Z,16.64
2018-10-18T00:30:59.508Z,16.35
2018-10-18T00:33:32.830Z,16.16
2018-10-18T00:36:03.449Z,16.06
2018-10-18T00:38:31.974Z,15.80
2018-10-18T00:41:00.744Z,15.36
2018-10-18T00:43:29.859Z,15.16
2018-10-18T00:46:00.258Z,15.03
2018-10-18T00:48:29.618Z,15.32
2018-10-18T00:50:58.764Z,15.63
2018-10-18T00:53:29.844Z,15.39
2018-10-18T00:55:59.538Z,15.28
2018-10-18T00:58:29.548Z,15.03
2018-10-18T01:00:58.937Z,15.35
2018-10-18T01:03:29.686Z,15.72
2018-10-18T01:05:59.345Z,15.95
2018-10-18T01:08:29.095Z,16.15
2018-10-18T01:10:59.558Z,16.30
2018-10-18T01:13:29.099Z,16.02
2018-10-18T01:15:58.993Z,15.84
2018-10-18T01:18:29.548Z,15.62
2018-10-18T01:21:00.983Z,15.71
2018-10-18T01:23:31.553Z,15.34
2018-10-18T01:26:03.187Z,15.74
2018-10-18T01:28:32.297Z,15.43
2018-10-18T01:31:01.934Z,15.84
2018-10-18T01:33:31.027Z,15.77
2018-10-18T01:36:01.546Z,15.88
2018-10-18T01:38:32.001Z,15.71
2018-10-18T01:41:04.923Z,15.89
2018-10-18T01:43:36.483Z,15.92
2018-10-18T01:46:07.016Z,15.96
2018-10-18T01:49:06.660Z,15.87
2018-10-18T01:51:35.800Z,15.94
2018-10-18T01:54:06.350Z,15.65
2018-10-18T01:56:36.903Z,15.21
2018-10-18T01:59:07.399Z,15.25
2018-10-18T02:01:36.673Z,14.61
2018-10-18T02:04:06.077Z,14.85
2018-10-18T02:06:34.825Z,14.74
2018-10-18T02:09:04.700Z,14.49
2018-10-18T02:11:35.749Z,14.53
2018-10-18T02:14:05.341Z,14.43
2018-10-18T02:16:35.513Z,14.35
2018-10-18T02:19:05.425Z,14.45
2018-10-18T02:21:34.720Z,14.27
2018-10-18T02:24:04.632Z,14.38
2018-10-18T02:26:34.339Z,14.19
2018-10-18T02:29:04.271Z,14.04
2018-10-18T02:31:34.304Z,14.34
2018-10-18T02:34:04.248Z,14.44
2018-10-18T02:36:34.389Z,14.82
2018-10-18T02:39:03.517Z,14.62
2018-10-18T02:41:32.679Z,14.85
2018-10-18T02:44:02.751Z,15.03
2018-10-18T02:46:32.152Z,14.69
2018-10-18T02:49:02.855Z,14.79
2018-10-18T02:51:32.841Z,14.54
2018-10-18T02:54:02.192Z,14.16
2018-10-18T02:56:32.279Z,14.19
2018-10-18T02:59:02.802Z,14.06
2018-10-18T03:01:32.247Z,13.81
2018-10-18T03:04:03.039Z,12.93
2018-10-18T03:06:32.649Z,13.91
2018-10-18T03:09:02.112Z,13.87
2018-10-18T03:11:32.803Z,13.83
2018-10-18T03:14:04.775Z,13.94
2018-10-18T03:16:34.954Z,13.88
2018-10-18T03:19:06.111Z,13.93
2018-10-18T03:21:34.988Z,13.79
2018-10-18T03:24:04.269Z,13.71
2018-10-18T03:26:32.784Z,13.89
2018-10-18T03:29:02.220Z,13.88
2018-10-18T03:31:31.983Z,13.73
2018-10-18T03:34:04.944Z,13.93
2018-10-18T03:36:34.384Z,14.17
2018-10-18T03:39:05.387Z,14.30
2018-10-18T03:41:34.637Z,14.18
2018-10-18T03:44:05.515Z,14.22
2018-10-18T03:46:36.081Z,13.98
2018-10-18T03:49:06.493Z,13.68
2018-10-18T03:51:36.255Z,13.71
2018-10-18T03:54:06.805Z,13.90
2018-10-18T03:56:36.399Z,13.57
2018-10-18T03:59:06.115Z,13.68
2018-10-18T04:01:35.387Z,13.69
2018-10-18T04:04:06.461Z,13.82
2018-10-18T04:06:37.870Z,13.66
2018-10-18T04:09:08.829Z,13.82
2018-10-18T04:11:40.777Z,14.06
2018-10-18T04:14:09.275Z,14.13
2018-10-18T04:16:38.783Z,14.43
2018-10-18T04:19:09.882Z,14.42
2018-10-18T04:21:40.856Z,14.35
2018-10-18T04:24:09.499Z,14.16
2018-10-18T04:26:37.993Z,14.29
2018-10-18T04:29:07.660Z,13.99
2018-10-18T04:31:37.793Z,13.82
2018-10-18T04:34:06.731Z,13.84
2018-10-18T04:36:35.446Z,13.84
2018-10-18T04:39:07.268Z,13.69
2018-10-18T04:41:37.147Z,13.77
2018-10-18T04:44:07.276Z,14.01
2018-10-18T04:46:37.667Z,14.07
2018-10-18T04:49:08.007Z,14.21
2018-10-18T04:51:38.385Z,14.33
2018-10-18T04:54:08.796Z,14.14
2018-10-18T04:56:39.387Z,14.22
2018-10-18T04:59:08.436Z,13.99
2018-10-18T05:01:39.921Z,14.35
2018-10-18T05:04:11.056Z,14.27
2018-10-18T05:06:42.195Z,14.48
2018-10-18T05:09:12.680Z,14.29
2018-10-18T05:11:42.329Z,14.52
2018-10-18T05:14:12.407Z,14.48
2018-10-18T05:19:42.332Z,14.89
2018-10-18T05:22:10.894Z,14.63
2018-10-18T05:24:39.744Z,15.26
2018-10-18T05:27:09.258Z,15.10
2018-10-18T05:30:12.165Z,15.06
2018-10-18T05:32:41.623Z,14.91
2018-10-18T05:35:11.858Z,14.59
2018-10-18T05:37:42.419Z,14.66
2018-10-18T05:40:11.398Z,14.55
2018-10-18T05:42:41.055Z,14.40
2018-10-18T05:45:10.092Z,14.43
2018-10-18T05:47:40.278Z,14.66
2018-10-18T05:50:10.616Z,14.51
2018-10-18T05:52:41.249Z,14.43
2018-10-18T05:55:12.329Z,11.70
2018-10-18T05:57:42.355Z,14.43
2018-10-18T06:00:17.143Z,14.40
2018-10-18T06:02:47.365Z,14.20
2018-10-18T06:05:17.680Z,14.13
2018-10-18T06:07:46.645Z,14.26
2018-10-18T06:10:27.566Z,14.09
2018-10-18T06:12:58.853Z,14.22
2018-10-18T06:15:28.783Z,14.45
2018-10-18T06:17:58.274Z,14.77
2018-10-18T06:20:27.972Z,14.62
2018-10-18T06:22:58.941Z,14.46
2018-10-18T06:25:29.587Z,14.88
2018-10-18T06:27:58.992Z,14.96
2018-10-18T06:30:28.675Z,15.06
2018-10-18T06:32:58.255Z,15.09
2018-10-18T06:35:26.747Z,14.73
2018-10-18T06:37:55.319Z,14.87
2018-10-18T06:40:24.576Z,14.91
2018-10-18T06:42:54.677Z,14.67
2018-10-18T06:45:25.073Z,14.73
2018-10-18T06:47:55.913Z,14.66
2018-10-18T06:50:24.567Z,14.33
2018-10-18T06:52:54.206Z,14.44
2018-10-18T06:55:24.213Z,14.50
2018-10-18T06:57:58.532Z,14.45
2018-10-18T07:00:28.076Z,14.38
2018-10-18T07:02:58.135Z,14.27
2018-10-18T07:05:26.784Z,14.57
2018-10-18T07:07:56.116Z,4.55
2018-10-18T07:10:26.668Z,14.95
2018-10-18T07:12:56.373Z,15.04
2018-10-18T07:15:25.480Z,15.56
2018-10-18T07:17:55.852Z,15.72
2018-10-18T07:20:27.239Z,15.86
2018-10-18T07:22:58.884Z,15.91
2018-10-18T07:25:29.704Z,16.25
2018-10-18T07:27:59.797Z,16.31
2018-10-18T07:30:30.098Z,16.46
2018-10-18T07:33:00.230Z,16.68
2018-10-18T07:35:30.922Z,16.82
2018-10-18T07:38:02.847Z,16.93
2018-10-18T07:40:32.809Z,16.81
2018-10-18T07:43:02.954Z,17.17
2018-10-18T07:45:32.066Z,17.23
2018-10-18T07:48:02.014Z,17.27
2018-10-18T07:50:31.154Z,17.37
2018-10-18T07:53:01.330Z,17.38
2018-10-18T07:55:30.779Z,17.47
2018-10-18T07:58:03.779Z,17.47
2018-10-18T08:00:33.593Z,17.58
2018-10-18T08:03:02.860Z,17.80
2018-10-18T08:05:34.406Z,17.70
2018-10-18T08:08:05.141Z,17.91
2018-10-18T08:10:35.067Z,18.06
2018-10-18T08:13:14.814Z,18.03
2018-10-18T08:15:44.668Z,18.00
2018-10-18T08:18:14.867Z,17.78
2018-10-18T08:20:44.548Z,17.79
2018-10-18T08:23:14.459Z,18.03
2018-10-18T08:25:43.619Z,18.06
2018-10-18T08:28:13.767Z,18.00
2018-10-18T08:30:44.541Z,18.11
2018-10-18T08:33:13.813Z,18.18
2018-10-18T08:35:43.132Z,18.12
2018-10-18T08:38:12.630Z,17.92
2018-10-18T08:40:42.347Z,17.90
2018-10-18T08:43:12.056Z,17.97
2018-10-18T08:45:42.643Z,18.11
2018-10-18T08:48:11.455Z,18.13
2018-10-18T08:50:41.026Z,18.10
2018-10-18T08:53:10.540Z,18.26
2018-10-18T08:55:40.819Z,18.34
2018-10-18T08:58:18.253Z,18.12
2018-10-18T09:00:47.237Z,18.23
2018-10-18T09:03:16.506Z,18.35
2018-10-18T09:05:48.036Z,18.49
2018-10-18T09:08:17.641Z,18.29
2018-10-18T09:10:47.140Z,18.37
2018-10-18T09:13:16.295Z,18.29
2018-10-18T09:15:46.694Z,18.43
2018-10-18T09:18:30.947Z,18.46
2018-10-18T09:21:01.763Z,18.30
2018-10-18T09:23:30.624Z,18.33
2018-10-18T09:27:02.291Z,18.21
2018-10-18T09:29:31.522Z,18.21
2018-10-18T09:32:03.649Z,18.37
2018-10-18T09:34:33.827Z,18.53
2018-10-18T09:37:03.875Z,18.74
2018-10-18T09:39:33.701Z,18.63
2018-10-18T09:42:03.262Z,18.83
2018-10-18T09:44:32.124Z,18.90
2018-10-18T09:47:01.459Z,19.15
2018-10-18T09:49:37.026Z,19.04
2018-10-18T09:52:06.788Z,19.06
2018-10-18T09:54:36.017Z,18.94
2018-10-18T09:57:05.884Z,18.95
2018-10-18T09:59:38.367Z,19.21
2018-10-18T10:02:13.342Z,19.20
2018-10-18T10:04:43.950Z,19.29
2018-10-18T10:07:15.689Z,19.07
2018-10-18T10:09:45.016Z,19.35
2018-10-18T10:12:14.568Z,19.34
2018-10-18T10:16:53.288Z,19.21
2018-10-18T10:19:24.590Z,19.54
2018-10-18T10:21:53.756Z,19.57
2018-10-18T10:24:24.003Z,19.53
2018-10-18T10:26:54.830Z,19.75
2018-10-18T10:29:24.133Z,20.10
2018-10-18T10:31:57.601Z,19.88
2018-10-18T10:34:29.094Z,19.70
2018-10-18T10:36:58.759Z,19.94
2018-10-18T10:39:27.797Z,19.73
2018-10-18T10:41:58.918Z,19.92
2018-10-18T10:44:29.953Z,20.09
2018-10-18T10:46:59.332Z,20.04
2018-10-18T10:49:28.985Z,19.99
2018-10-18T10:51:58.353Z,19.67
2018-10-18T10:57:03.886Z,19.95
2018-10-18T10:59:34.688Z,19.96
2018-10-18T11:02:05.934Z,19.84
2018-10-18T11:04:36.030Z,20.29
2018-10-18T11:07:06.443Z,20.26
2018-10-18T11:09:37.027Z,20.28
2018-10-18T11:12:07.896Z,20.26
2018-10-18T11:14:36.631Z,20.38
2018-10-18T11:17:05.391Z,20.63
2018-10-18T11:19:35.268Z,20.50
2018-10-18T11:22:05.835Z,20.35
2018-10-18T11:24:36.927Z,20.58
2018-10-18T11:27:06.090Z,20.50
2018-10-18T11:29:34.923Z,20.54
2018-10-18T11:32:03.661Z,20.95
2018-10-18T11:34:36.141Z,20.79
2018-10-18T11:39:44.253Z,20.95
2018-10-18T11:42:14.368Z,21.01
2018-10-18T11:44:44.997Z,21.23
2018-10-18T11:47:15.382Z,21.34
2018-10-18T11:49:44.482Z,21.31
2018-10-18T11:52:14.173Z,21.35
2018-10-18T11:54:42.998Z,21.26
2018-10-18T11:57:12.586Z,21.35
2018-10-18T11:59:42.413Z,19.35
2018-10-18T12:02:12.767Z,21.46
2018-10-18T12:04:43.340Z,21.78
2018-10-18T12:09:59.991Z,21.58
2018-10-18T12:12:28.555Z,21.80
2018-10-18T12:14:58.708Z,21.72
2018-10-18T12:17:29.625Z,21.60
2018-10-18T12:19:59.529Z,21.76
2018-10-18T12:22:29.205Z,21.90
2018-10-18T12:24:58.004Z,21.88
2018-10-18T12:27:30.017Z,22.06
2018-10-18T12:29:59.055Z,22.36
2018-10-18T12:32:31.153Z,22.59
2018-10-18T12:35:01.158Z,22.45
2018-10-18T12:37:30.269Z,22.41
2018-10-18T12:40:00.620Z,22.46
2018-10-18T12:42:31.200Z,22.53
2018-10-18T12:45:00.808Z,22.17
2018-10-18T12:47:31.275Z,22.00
2018-10-18T12:50:01.980Z,22.52
2018-10-18T12:52:31.884Z,22.56
2018-10-18T12:55:01.034Z,22.50
2018-10-18T12:57:30.032Z,22.77
2018-10-18T12:59:58.918Z,22.70
2018-10-18T13:02:27.913Z,22.70
2018-10-18T13:04:57.698Z,22.75
2018-10-18T13:07:27.004Z,22.42
2018-10-18T13:09:56.016Z,22.56
2018-10-18T13:12:25.329Z,22.52
2018-10-18T13:14:54.239Z,22.61
2018-10-18T13:17:24.165Z,22.64
2018-10-18T13:19:53.977Z,22.83
2018-10-18T13:22:22.582Z,22.72
2018-10-18T13:24:51.275Z,22.91
2018-10-18T13:27:21.813Z,23.00
2018-10-18T13:29:51.367Z,22.59
2018-10-18T13:32:22.186Z,22.88
2018-10-18T13:34:51.423Z,23.44
2018-10-18T13:37:20.741Z,23.77
2018-10-18T13:39:49.814Z,23.52
2018-10-18T13:42:20.872Z,22.92
2018-10-18T13:44:50.675Z,23.10
2018-10-18T13:47:20.460Z,23.53
2018-10-18T13:49:50.076Z,23.49
2018-10-18T13:52:20.403Z,23.66
2018-10-18T13:54:49.983Z,24.00
2018-10-18T13:57:20.145Z,24.10
2018-10-18T13:59:59.702Z,24.02
2018-10-18T14:02:28.690Z,24.11
2018-10-18T14:04:58.762Z,24.07
2018-10-18T14:07:28.436Z,24.08
2018-10-18T14:09:57.773Z,23.99
2018-10-18T14:12:27.394Z,23.92
2018-10-18T14:14:57.908Z,21.74
2018-10-18T14:17:26.918Z,23.53
2018-10-18T14:19:57.025Z,23.51
2018-10-18T14:22:26.684Z,23.57
2018-10-18T14:25:24.243Z,23.69
2018-10-18T14:27:53.914Z,24.03
2018-10-18T14:30:24.820Z,23.72
2018-10-18T14:32:54.340Z,23.55
2018-10-18T14:35:24.043Z,23.57
2018-10-18T14:37:55.565Z,23.15
2018-10-18T14:40:25.893Z,22.99
2018-10-18T14:42:55.352Z,23.51
2018-10-18T14:45:24.895Z,23.46
2018-10-18T14:47:53.592Z,23.21
2018-10-18T14:50:23.069Z,22.87
2018-10-18T14:52:52.094Z,22.57
2018-10-18T14:55:21.442Z,22.77
2018-10-18T14:57:52.599Z,22.61
2018-10-18T15:00:22.040Z,22.67
2018-10-18T15:02:50.544Z,22.80
2018-10-18T15:05:20.645Z,22.69
2018-10-18T15:07:49.943Z,22.87
2018-10-18T15:10:18.772Z,22.90
2018-10-18T15:12:48.459Z,22.88
2018-10-18T15:15:18.919Z,22.79
2018-10-18T15:17:48.531Z,22.56
2018-10-18T15:20:17.968Z,22.19
2018-10-18T15:22:48.555Z,22.27
2018-10-18T15:25:17.780Z,21.87
2018-10-18T15:27:47.375Z,22.08
2018-10-18T15:30:17.226Z,22.12
2018-10-18T15:32:47.299Z,21.78
2018-10-18T15:35:19.587Z,21.90
2018-10-18T15:37:48.440Z,21.88
2018-10-18T15:40:18.105Z,21.68
2018-10-18T15:42:47.525Z,21.51
2018-10-18T15:45:16.665Z,21.43
2018-10-18T15:47:46.227Z,21.30
2018-10-18T15:50:15.200Z,21.33
2018-10-18T15:52:44.448Z,21.37
2018-10-18T15:55:14.360Z,21.44
2018-10-18T15:57:44.958Z,21.08
2018-10-18T16:00:16.526Z,20.99
2018-10-18T16:02:45.788Z,21.02
2018-10-18T16:05:15.663Z,20.96
2018-10-18T16:07:45.828Z,20.87
2018-10-18T16:10:15.810Z,20.70
2018-10-18T16:12:45.809Z,20.73
2018-10-18T16:15:15.788Z,20.62
2018-10-18T16:17:44.735Z,20.27
2018-10-18T16:20:14.634Z,20.26
2018-10-18T16:22:47.104Z,19.36
2018-10-18T16:25:16.706Z,20.16
2018-10-18T16:27:46.519Z,20.21
2018-10-18T16:30:15.873Z,20.08
2018-10-18T16:32:44.695Z,20.16
2018-10-18T16:35:14.960Z,20.07
2018-10-18T16:37:45.095Z,19.91
2018-10-18T16:40:16.515Z,20.06
2018-10-18T16:42:47.177Z,19.82
2018-10-18T16:45:16.233Z,19.80
2018-10-18T16:47:46.336Z,19.76
2018-10-18T16:50:15.454Z,19.68
2018-10-18T16:52:44.716Z,19.63
2018-10-18T16:55:13.214Z,19.47
2018-10-18T16:57:43.649Z,19.19
2018-10-18T17:00:14.012Z,19.17
2018-10-18T17:02:45.077Z,19.14
2018-10-18T17:05:16.700Z,19.04
2018-10-18T17:07:46.401Z,19.05
2018-10-18T17:10:17.201Z,18.95
2018-10-18T17:12:46.649Z,18.95
2018-10-18T17:15:16.296Z,19.00
2018-10-18T17:17:44.983Z,18.99
2018-10-18T17:20:15.245Z,18.96
2018-10-18T17:22:45.970Z,18.60
2018-10-18T17:25:23.205Z,18.81
2018-10-18T17:27:52.073Z,18.66
2018-10-18T17:30:22.767Z,18.72
2018-10-18T17:32:53.788Z,18.60
2018-10-18T17:35:25.495Z,18.65
2018-10-18T17:37:55.866Z,18.55
2018-10-18T17:40:24.608Z,18.54
2018-10-18T17:42:54.520Z,18.51
2018-10-18T17:45:23.678Z,18.45
2018-10-18T17:47:54.426Z,18.53
2018-10-18T17:50:24.082Z,18.54
2018-10-18T17:52:54.422Z,18.66
2018-10-18T17:55:24.257Z,18.72
2018-10-18T17:57:52.815Z,18.74
2018-10-18T18:00:22.186Z,18.65
2018-10-18T18:02:51.632Z,18.69
2018-10-18T18:05:21.727Z,18.68
2018-10-18T18:07:52.608Z,18.59
2018-10-18T18:10:22.329Z,18.55
2018-10-18T18:12:51.760Z,18.56
2018-10-18T18:15:23.218Z,18.70
2018-10-18T18:17:52.268Z,18.58
2018-10-18T18:20:22.450Z,18.58
2018-10-18T18:22:52.699Z,18.48
2018-10-18T18:25:22.442Z,18.39
2018-10-18T18:27:52.668Z,18.28
2018-10-18T18:30:22.166Z,18.23
2018-10-18T18:32:51.426Z,18.20
2018-10-18T18:35:21.308Z,18.11
2018-10-18T18:37:53.355Z,17.71
2018-10-18T18:40:22.478Z,18.11
2018-10-18T18:42:54.056Z,18.16
2018-10-18T18:45:25.979Z,18.05
2018-10-18T18:47:55.500Z,18.09
2018-10-18T18:50:24.285Z,17.98
2018-10-18T18:52:54.371Z,17.91
2018-10-18T18:55:25.696Z,17.89
2018-10-18T18:57:54.881Z,17.87
2018-10-18T19:00:24.855Z,17.90
2018-10-18T19:02:53.380Z,17.99
2018-10-18T19:05:22.414Z,17.97
2018-10-18T19:07:53.744Z,18.01
2018-10-18T19:10:22.557Z,18.06
2018-10-18T19:12:53.051Z,18.01
2018-10-18T19:15:22.883Z,17.99
2018-10-18T19:17:51.769Z,17.93
2018-10-18T19:20:20.411Z,17.92
2018-10-18T19:22:51.504Z,17.88
2018-10-18T19:25:20.496Z,17.81
2018-10-18T19:27:49.053Z,17.74
2018-10-18T19:30:20.136Z,17.71
2018-10-18T19:32:50.194Z,17.59
2018-10-18T19:35:20.275Z,17.56
2018-10-18T19:37:50.364Z,15.66
2018-10-18T19:40:19.577Z,17.50
2018-10-18T19:42:50.251Z,15.04
2018-10-18T19:45:25.460Z,17.41
2018-10-18T19:47:55.144Z,17.24
2018-10-18T19:50:24.650Z,17.42
2018-10-18T19:52:56.382Z,17.29
2018-10-18T19:55:25.612Z,17.36
2018-10-18T19:57:56.897Z,17.22
2018-10-18T20:00:26.279Z,17.16
2018-10-18T20:02:55.080Z,17.14
2018-10-18T20:05:25.462Z,17.04
2018-10-18T20:07:54.659Z,17.04
2018-10-18T20:10:25.100Z,17.10
2018-10-18T20:12:53.930Z,17.06
2018-10-18T20:15:23.127Z,17.03
2018-10-18T20:17:53.794Z,17.03
2018-10-18T20:20:25.181Z,17.00
2018-10-18T20:22:54.498Z,17.00
2018-10-18T20:25:24.547Z,17.09
2018-10-18T20:27:54.404Z,17.07
2018-10-18T20:30:24.361Z,16.92
2018-10-18T20:32:55.165Z,16.81
2018-10-18T20:35:26.183Z,16.91
2018-10-18T20:37:55.868Z,16.86
2018-10-18T20:40:26.229Z,16.97
2018-10-18T20:42:54.758Z,16.88
2018-10-18T20:45:25.076Z,16.91
2018-10-18T20:47:54.300Z,16.90
2018-10-18T20:50:24.492Z,16.89
2018-10-18T20:52:56.245Z,17.02
2018-10-18T20:55:26.556Z,16.86
2018-10-18T20:57:55.084Z,16.90
2018-10-18T21:00:25.157Z,16.92
2018-10-18T21:02:55.779Z,17.05
2018-10-18T21:05:26.234Z,16.97
2018-10-18T21:07:58.338Z,16.83
2018-10-18T21:10:29.150Z,16.82
2018-10-18T21:12:59.701Z,16.71
2018-10-18T21:15:28.614Z,16.62
2018-10-18T21:17:59.042Z,16.48
2018-10-18T21:20:28.141Z,16.45
2018-10-18T21:22:57.775Z,16.42
2018-10-18T21:25:26.932Z,16.34
2018-10-18T21:27:56.127Z,16.32
2018-10-18T21:30:25.389Z,16.26
2018-10-18T21:32:53.945Z,16.27
2018-10-18T21:35:24.226Z,16.22
2018-10-18T21:37:53.790Z,16.13
2018-10-18T21:40:23.867Z,16.03
2018-10-18T21:42:54.799Z,15.99
2018-10-18T21:45:24.496Z,15.97
2018-10-18T21:47:55.301Z,15.83
2018-10-18T21:50:25.862Z,15.88
2018-10-18T21:52:54.758Z,15.92
2018-10-18T21:55:25.544Z,16.02
2018-10-18T21:57:55.573Z,16.04
2018-10-18T22:00:30.225Z,15.92
2018-10-18T22:02:59.869Z,15.86
2018-10-18T22:05:29.215Z,15.69
2018-10-18T22:07:58.880Z,15.74
2018-10-18T22:10:28.855Z,15.70
2018-10-18T22:12:58.119Z,15.73
2018-10-18T22:15:27.034Z,15.62
2018-10-18T22:17:59.068Z,15.61
2018-10-18T22:20:28.186Z,15.53
2018-10-18T22:22:57.730Z,15.40
2018-10-18T22:25:27.403Z,15.29
2018-10-18T22:27:56.564Z,15.30
2018-10-18T22:30:27.384Z,15.35
2018-10-18T22:32:56.711Z,15.29
2018-10-18T22:35:27.022Z,15.34
2018-10-18T22:37:58.804Z,15.50
2018-10-18T22:40:29.284Z,15.51
2018-10-18T22:42:59.632Z,15.41
2018-10-18T22:45:29.439Z,15.40
2018-10-18T22:47:59.913Z,15.29
2018-10-18T22:50:30.497Z,15.26
2018-10-18T22:53:00.104Z,15.38
2018-10-18T22:55:30.091Z,15.46
2018-10-18T22:57:59.275Z,15.56
2018-10-18T23:00:28.323Z,15.53
2018-10-18T23:03:03.750Z,15.46
2018-10-18T23:05:32.229Z,15.47
2018-10-18T23:08:02.053Z,14.98
2018-10-18T23:10:30.842Z,15.41
2018-10-18T23:12:59.560Z,15.31
2018-10-18T23:15:30.435Z,15.37
2018-10-18T23:18:00.953Z,15.43
2018-10-18T23:20:29.515Z,15.46
2018-10-18T23:22:58.845Z,15.55
2018-10-18T23:25:30.631Z,15.54
2018-10-18T23:27:59.961Z,15.65
2018-10-18T23:30:29.273Z,15.65
2018-10-18T23:32:58.096Z,15.78
2018-10-18T23:35:27.428Z,15.74
2018-10-18T23:37:55.947Z,15.60
2018-10-18T23:40:25.022Z,15.58
2018-10-18T23:42:54.574Z,15.43
2018-10-18T23:45:23.418Z,15.32
2018-10-18T23:47:54.449Z,15.24
2018-10-18T23:50:23.764Z,15.33
2018-10-18T23:52:55.453Z,15.22
2018-10-18T23:55:24.893Z,15.24
2018-10-18T23:57:55.075Z,15.20
